Time;durP1;ratioP1;P1;durP2;ratioP2;P2;SDS_P1;SDS_P2;PMS_P1;PMS_P2;Temp;Humidity;BMP_temperature;BMP_pressure;BME280_temperature;BME280_humidity;BME280_pressure;Samples;Min_cycle;Max_cycle;Signal;HPM_P1;HPM_P2
2022/04/14 00:00:56;;;;;;;52.53;36.67;;;;;;;9.87;100.00;101979.75;5110337;28;20031;-75
2022/04/14 00:03:21;;;;;;;53.58;36.88;;;;;;;9.85;100.00;101979.78;5099951;28;20100;-74
2022/04/14 00:05:47;;;;;;;58.08;37.65;;;;;;;9.80;100.00;101981.50;5111382;28;20055;-74
2022/04/14 00:08:12;;;;;;;59.03;39.33;;;;;;;9.80;100.00;101973.69;5111161;28;20027;-75
2022/04/14 00:10:37;;;;;;;52.30;36.58;;;;;;;9.84;100.00;101974.53;5112223;28;20028;-74
2022/04/14 00:13:03;;;;;;;53.05;36.55;;;;;;;9.83;100.00;101971.06;5113389;28;20387;-74
2022/04/14 00:15:28;;;;;;;51.78;36.55;;;;;;;9.83;100.00;101972.81;5113188;28;20049;-74
2022/04/14 00:17:54;;;;;;;55.40;37.70;;;;;;;9.84;100.00;101961.53;5112813;28;20028;-74
2022/04/14 00:20:19;;;;;;;54.58;37.65;;;;;;;9.83;100.00;101965.88;5110420;28;20038;-74
2022/04/14 00:22:44;;;;;;;51.88;36.22;;;;;;;9.84;100.00;101962.41;5103876;28;20028;-74
2022/04/14 00:25:11;;;;;;;49.35;36.15;;;;;;;9.83;100.00;101960.66;5112074;28;20024;-74
2022/04/14 00:27:37;;;;;;;49.40;34.75;;;;;;;9.85;100.00;101955.47;5106185;28;20168;-74
2022/04/14 00:30:02;;;;;;;45.38;32.60;;;;;;;9.84;100.00;101958.91;5113989;28;20549;-74
2022/04/14 00:32:28;;;;;;;51.03;34.55;;;;;;;9.83;100.00;101960.66;5112071;28;20028;-74
2022/04/14 00:34:53;;;;;;;49.30;34.60;;;;;;;9.80;100.00;101954.59;5110156;28;20036;-74
2022/04/14 00:37:18;;;;;;;47.85;34.47;;;;;;;9.78;100.00;101956.34;5109277;28;20096;-74
2022/04/14 00:39:44;;;;;;;51.78;36.15;;;;;;;9.78;100.00;101962.44;5111699;28;20035;-74
2022/04/14 00:42:10;;;;;;;48.08;35.28;;;;;;;9.79;100.00;101960.69;5111948;28;20024;-74
2022/04/14 00:44:36;;;;;;;50.40;35.45;;;;;;;9.79;100.00;101953.72;5113359;28;20030;-74
2022/04/14 00:47:01;;;;;;;52.30;35.65;;;;;;;9.77;100.00;101957.22;5110979;27;20491;-74
2022/04/14 00:49:27;;;;;;;48.17;34.55;;;;;;;9.71;100.00;101958.09;5098805;27;20147;-74
2022/04/14 00:51:52;;;;;;;52.35;36.22;;;;;;;9.75;100.00;101964.19;5111886;28;20085;-74
2022/04/14 00:54:17;;;;;;;48.78;34.15;;;;;;;9.71;100.00;101963.31;5111268;28;20024;-74
2022/04/14 00:56:42;;;;;;;49.15;35.97;;;;;;;9.69;100.00;101964.19;5098733;28;20027;-74
2022/04/14 00:59:08;;;;;;;46.13;34.58;;;;;;;9.69;100.00;101958.97;5100543;28;20030;-74
2022/04/14 01:01:33;;;;;;;51.47;34.90;;;;;;;9.65;100.00;101962.47;5111583;28;20431;-74
2022/04/14 01:03:59;;;;;;;52.35;36.25;;;;;;;9.64;100.00;101955.50;5112265;28;20027;-74
2022/04/14 01:06:25;;;;;;;55.45;36.50;;;;;;;9.63;100.00;101953.78;5109233;28;20031;-74
2022/04/14 01:11:35;;;;;;;54.08;35.58;;;;;;;9.59;100.00;101961.59;5110340;28;20029;-74
2022/04/14 01:14:01;;;;;;;52.17;36.03;;;;;;;9.58;100.00;101954.66;5107531;28;20031;-74
2022/04/14 01:16:26;;;;;;;48.15;34.25;;;;;;;9.59;100.00;101955.53;5108601;28;20502;-74
2022/04/14 01:18:52;;;;;;;51.67;36.15;;;;;;;9.55;100.00;101959.88;5096043;28;20022;-74
2022/04/14 01:21:17;;;;;;;51.78;35.55;;;;;;;9.47;100.00;101953.78;5107768;28;20073;-74
2022/04/14 01:23:44;;;;;;;46.78;33.38;;;;;;;9.52;100.00;101957.25;5103411;28;20078;-74
2022/04/14 01:26:11;;;;;;;49.85;36.00;;;;;;;9.49;100.00;101957.28;5104959;28;20122;-74
2022/04/14 01:28:36;;;;;;;53.72;36.42;;;;;;;9.48;100.00;101955.53;5111330;28;20028;-74
2022/04/14 01:31:01;;;;;;;49.45;33.97;;;;;;;9.46;100.00;101952.06;5110355;28;20419;-74
2022/04/14 01:33:26;;;;;;;49.72;35.28;;;;;;;9.45;100.00;101959.84;5112755;28;20115;-74
2022/04/14 01:35:52;;;;;;;50.28;35.88;;;;;;;9.44;100.00;101958.13;5107925;28;20357;-74
2022/04/14 01:38:17;;;;;;;48.22;34.95;;;;;;;9.43;100.00;101954.66;5111527;28;20023;-75
2022/04/14 01:40:42;;;;;;;49.47;34.55;;;;;;;9.40;100.00;101954.66;5111875;28;20032;-74
2022/04/14 01:43:07;;;;;;;51.13;34.08;;;;;;;9.38;100.00;101954.69;5110579;28;20036;-75
2022/04/14 01:45:33;;;;;;;51.17;35.60;;;;;;;9.32;100.00;101948.63;5109535;28;20052;-75
2022/04/14 01:47:58;;;;;;;48.45;35.10;;;;;;;9.35;100.00;101959.00;5109723;28;20118;-75
2022/04/14 01:50:26;;;;;;;50.22;35.83;;;;;;;9.32;100.00;101956.44;5109658;28;20039;-74
2022/04/14 01:52:52;;;;;;;52.20;35.88;;;;;;;9.30;100.00;101952.94;5110722;28;20100;-75
2022/04/14 01:55:17;;;;;;;51.25;35.83;;;;;;;9.27;100.00;101952.94;5110721;28;20035;-74
2022/04/14 01:57:44;;;;;;;48.53;33.90;;;;;;;9.28;100.00;101954.66;5103014;28;20040;-74
2022/04/14 02:00:10;;;;;;;47.22;33.78;;;;;;;9.26;100.00;101957.28;5102765;28;20023;-74
2022/04/14 02:02:35;;;;;;;52.60;35.00;;;;;;;9.24;100.00;101955.53;5100339;28;20058;-75
2022/04/14 02:05:01;;;;;;;50.38;35.10;;;;;;;9.26;100.00;101959.03;5092000;28;20051;-74
2022/04/14 02:07:27;;;;;;;50.45;36.53;;;;;;;9.25;100.00;101963.34;5093855;28;20110;-74
2022/04/14 02:09:52;;;;;;;51.85;36.17;;;;;;;9.24;100.00;101961.63;5110206;28;20065;-75
2022/04/14 02:12:17;;;;;;;55.00;36.45;;;;;;;9.22;100.00;101960.75;5106489;28;20413;-74
2022/04/14 02:14:43;;;;;;;53.95;36.83;;;;;;;9.23;100.00;101961.63;5109455;28;20027;-74
2022/04/14 02:17:08;;;;;;;53.33;37.35;;;;;;;9.17;100.00;101949.47;5109693;28;20023;-74
2022/04/14 02:19:33;;;;;;;54.20;36.45;;;;;;;9.24;100.00;101966.81;5108204;28;20065;-74
2022/04/14 02:21:59;;;;;;;53.55;36.35;;;;;;;9.24;100.00;101963.34;5105750;28;20505;-74
2022/04/14 02:24:25;;;;;;;57.58;37.05;;;;;;;9.23;100.00;101959.03;5107459;28;20464;-74
2022/04/14 02:26:51;;;;;;;49.13;34.70;;;;;;;9.22;100.00;101959.88;5102288;28;20035;-75
2022/04/14 02:29:16;;;;;;;60.45;38.85;;;;;;;9.21;100.00;101969.41;5091703;28;20055;-74
2022/04/14 02:31:41;;;;;;;59.35;37.60;;;;;;;9.20;100.00;101972.91;5108093;28;20028;-74
2022/04/14 02:34:07;;;;;;;53.17;35.78;;;;;;;9.19;100.00;101967.66;5108921;28;20035;-74
2022/04/14 02:36:32;;;;;;;53.08;34.92;;;;;;;9.18;100.00;101971.16;5110441;28;20028;-74
2022/04/14 02:38:57;;;;;;;47.55;33.15;;;;;;;9.17;100.00;101972.03;5109459;28;20039;-74
2022/04/14 02:41:22;;;;;;;50.45;31.83;;;;;;;9.14;100.00;101980.69;5111558;28;20039;-74
2022/04/14 02:43:49;;;;;;;52.42;34.58;;;;;;;9.11;100.00;101971.16;5108018;28;20427;-74
2022/04/14 02:46:15;;;;;;;48.25;32.88;;;;;;;9.12;100.00;101978.09;5098136;28;20026;-74
2022/04/14 02:48:40;;;;;;;56.75;35.55;;;;;;;9.09;100.00;101978.09;5110146;28;20044;-74
2022/04/14 02:51:05;;;;;;;51.63;34.17;;;;;;;9.08;100.00;101973.75;5111436;28;20048;-74
2022/04/14 02:53:30;;;;;;;54.95;34.83;;;;;;;9.03;100.00;101970.28;5109301;28;20036;-74
2022/04/14 02:55:56;;;;;;;51.03;34.10;;;;;;;9.02;100.00;101978.06;5100003;28;20081;-74
2022/04/14 02:58:21;;;;;;;48.03;32.55;;;;;;;9.01;100.00;101982.41;5109553;28;20070;-74
2022/04/14 03:00:46;;;;;;;52.35;35.00;;;;;;;8.96;100.00;101973.75;5103186;28;20027;-74
2022/04/14 03:03:12;;;;;;;61.10;37.58;;;;;;;8.92;100.00;101974.59;5110141;28;20045;-74
2022/04/14 03:05:38;;;;;;;62.85;40.10;;;;;;;8.88;100.00;101972.84;5104962;28;20106;-74
2022/04/14 03:08:03;;;;;;;63.30;41.00;;;;;;;8.87;100.00;101971.13;5108836;28;20024;-74
2022/04/14 03:10:29;;;;;;;71.30;44.85;;;;;;;8.85;100.00;101978.06;5104395;28;20403;-74
2022/04/14 03:12:54;;;;;;;68.72;44.25;;;;;;;8.82;100.00;101973.72;5116032;27;20031;-74
2022/04/14 03:15:19;;;;;;;72.78;46.45;;;;;;;8.80;100.00;101967.66;5115209;28;20059;-74
2022/04/14 03:17:44;;;;;;;62.72;42.03;;;;;;;8.78;100.00;101971.09;5115711;28;20028;-74
2022/04/14 03:20:10;;;;;;;63.15;42.50;;;;;;;8.73;100.00;101971.13;5112227;28;20112;-74
2022/04/14 03:22:36;;;;;;;67.18;42.25;;;;;;;8.70;100.00;101978.91;5111289;28;20030;-74
2022/04/14 03:25:07;;;;;;;62.17;40.22;;;;;;;8.65;100.00;101983.22;5099022;28;20487;-74
2022/04/14 03:27:32;;;;;;;62.13;39.80;;;;;;;8.62;100.00;101981.47;5100123;28;20027;-74
2022/04/14 03:29:58;;;;;;;62.58;40.47;;;;;;;8.59;100.00;101984.06;5113228;28;20015;-74
2022/04/14 03:32:24;;;;;;;62.03;39.50;;;;;;;8.57;100.00;101980.59;5114088;28;20387;-74
2022/04/14 03:34:50;;;;;;;66.00;41.17;;;;;;;8.58;100.00;101986.66;5112022;28;20032;-74
2022/04/14 03:37:15;;;;;;;62.90;41.38;;;;;;;8.58;100.00;101990.13;5110122;28;20611;-74
2022/04/14 03:39:40;;;;;;;70.00;42.55;;;;;;;8.58;100.00;101984.94;5111378;28;20372;-74
2022/04/14 03:42:06;;;;;;;63.47;41.40;;;;;;;8.58;100.00;101984.06;5113437;28;20478;-74
2022/04/14 03:44:31;;;;;;;65.10;42.28;;;;;;;8.59;100.00;101991.84;5114430;28;20035;-74
2022/04/14 03:46:56;;;;;;;68.95;43.13;;;;;;;8.63;100.00;101979.72;5113866;28;20035;-74
2022/04/14 03:49:22;;;;;;;68.40;41.47;;;;;;;8.68;100.00;101983.22;5112696;28;20475;-74
2022/04/14 03:51:47;;;;;;;68.95;42.65;;;;;;;8.77;100.00;101977.19;5109807;28;20078;-74
2022/04/14 03:54:12;;;;;;;85.85;44.63;;;;;;;8.83;100.00;101969.41;5114673;28;20019;-74
2022/04/14 03:56:37;;;;;;;75.40;45.95;;;;;;;8.87;100.00;101978.94;5101248;28;20028;-74
2022/04/14 03:59:03;;;;;;;81.38;46.38;;;;;;;8.90;100.00;101972.00;5115111;28;20027;-74
2022/04/14 04:01:28;;;;;;;84.50;46.10;;;;;;;8.95;100.00;101960.72;5112235;28;20020;-74
2022/04/14 04:03:53;;;;;;;209.40;51.05;;;;;;;9.00;100.00;101975.47;5111742;28;20058;-74
2022/04/14 04:06:18;;;;;;;168.60;50.60;;;;;;;9.05;100.00;101975.47;5110685;28;20028;-74
2022/04/14 04:08:44;;;;;;;109.18;46.63;;;;;;;9.07;100.00;101979.81;5096550;28;20394;-74
2022/04/14 04:11:09;;;;;;;96.63;46.22;;;;;;;9.08;100.00;101978.94;5113168;28;20028;-75
2022/04/14 04:13:34;;;;;;;197.20;49.13;;;;;;;9.14;100.00;101981.56;5113678;28;20032;-74
2022/04/14 04:15:59;;;;;;;194.77;48.50;;;;;;;9.17;100.00;101974.63;5113094;28;20081;-74
2022/04/14 04:18:25;;;;;;;98.90;47.15;;;;;;;9.20;100.00;101993.72;5112704;28;20030;-74
2022/04/14 04:20:50;;;;;;;106.15;47.35;;;;;;;9.21;100.00;101984.16;5106746;28;20093;-74
2022/04/14 04:23:15;;;;;;;83.50;45.80;;;;;;;9.24;100.00;101999.78;5104726;28;20038;-74
2022/04/14 04:25:41;;;;;;;132.57;45.38;;;;;;;9.25;100.00;101989.34;5111842;28;20031;-74
2022/04/14 04:28:07;;;;;;;94.10;44.47;;;;;;;9.24;100.00;102002.38;5111950;28;20422;-74
2022/04/14 04:30:32;;;;;;;79.80;42.45;;;;;;;9.23;100.00;102000.66;5112001;28;20024;-74
2022/04/14 04:32:57;;;;;;;114.13;44.60;;;;;;;9.23;100.00;101993.72;5113088;28;20027;-74
2022/04/14 04:35:23;;;;;;;112.38;43.95;;;;;;;9.24;100.00;102003.25;5109428;28;20355;-74
2022/04/14 04:37:48;;;;;;;74.82;43.50;;;;;;;9.26;100.00;102005.88;5113307;28;20486;-74
2022/04/14 04:40:14;;;;;;;86.13;42.88;;;;;;;9.21;100.00;102011.03;5108105;28;20059;-74
2022/04/14 04:42:39;;;;;;;104.07;44.13;;;;;;;9.25;100.00;102015.38;5098270;28;20024;-75
2022/04/14 04:45:05;;;;;;;92.50;43.95;;;;;;;9.17;100.00;102006.72;5106217;28;20027;-74
2022/04/14 04:47:30;;;;;;;77.07;41.97;;;;;;;9.22;100.00;102004.09;5109895;28;20110;-74
2022/04/14 04:49:55;;;;;;;131.40;43.28;;;;;;;9.22;100.00;102014.50;5110271;28;20027;-74
2022/04/14 04:52:21;;;;;;;123.03;40.58;;;;;;;9.21;100.00;102015.38;5110679;28;20582;-74
2022/04/14 04:54:46;;;;;;;84.03;42.75;;;;;;;9.21;100.00;102013.66;5111343;28;20441;-74
2022/04/14 04:57:11;;;;;;;88.78;42.40;;;;;;;9.21;100.00;102018.00;5097958;28;20032;-74
2022/04/14 04:59:36;;;;;;;75.35;41.30;;;;;;;9.20;100.00;102024.94;5100308;28;20015;-74
2022/04/14 05:02:02;;;;;;;89.68;43.65;;;;;;;9.16;100.00;102022.34;5112666;28;20364;-74
2022/04/14 05:04:27;;;;;;;83.35;40.20;;;;;;;9.12;100.00;102017.13;5112138;28;20028;-74
2022/04/14 05:06:53;;;;;;;108.05;42.53;;;;;;;9.10;100.00;102029.25;5109769;28;20028;-74
2022/04/14 05:09:18;;;;;;;121.07;42.38;;;;;;;9.09;100.00;102029.22;5111420;28;20027;-74
2022/04/14 05:11:43;;;;;;;83.18;40.42;;;;;;;9.04;100.00;102018.84;5108405;28;20372;-74
2022/04/14 05:14:09;;;;;;;67.97;39.83;;;;;;;9.03;100.00;102024.06;5099987;28;20024;-75
2022/04/14 05:16:35;;;;;;;59.58;40.90;;;;;;;9.01;100.00;102025.78;5092328;28;20024;-74
2022/04/14 05:19:00;;;;;;;57.78;39.28;;;;;;;8.97;100.00;102030.09;5112902;28;20031;-74
2022/04/14 05:21:26;;;;;;;70.70;39.22;;;;;;;8.93;100.00;102032.66;5112200;28;20032;-74
2022/04/14 05:23:51;;;;;;;65.28;39.70;;;;;;;8.90;100.00;102033.56;5106997;28;20063;-74
2022/04/14 05:26:17;;;;;;;63.47;39.53;;;;;;;8.86;100.00;102035.28;5111872;28;20384;-75
2022/04/14 05:28:42;;;;;;;61.58;38.85;;;;;;;8.84;100.00;102038.75;5111446;28;20031;-74
2022/04/14 05:31:07;;;;;;;59.67;39.67;;;;;;;8.77;100.00;102034.38;5110263;28;20492;-74
2022/04/14 05:33:33;;;;;;;62.17;37.72;;;;;;;8.75;100.00;102049.09;5106180;28;20023;-75
2022/04/14 05:35:58;;;;;;;62.78;39.85;;;;;;;8.67;100.00;102044.75;5113034;27;20016;-74
2022/04/14 05:38:24;;;;;;;74.80;40.30;;;;;;;8.65;100.00;102049.06;5108690;28;20027;-74
2022/04/14 05:40:49;;;;;;;65.20;41.78;;;;;;;8.67;100.00;102054.28;5108668;28;20425;-74
2022/04/14 05:43:19;;;;;;;61.33;40.35;;;;;;;8.66;100.00;102049.94;5107754;28;20474;-75
2022/04/14 05:45:47;;;;;;;66.32;40.63;;;;;;;8.67;100.00;102065.56;5111772;28;20031;-74
2022/04/14 05:48:14;;;;;;;63.72;40.92;;;;;;;8.68;100.00;102063.81;5109994;28;20118;-75
2022/04/14 05:50:40;;;;;;;67.07;41.42;;;;;;;8.71;100.00;102063.81;5107979;28;20084;-75
2022/04/14 05:53:05;;;;;;;60.13;40.08;;;;;;;8.74;100.00;102065.56;5110079;28;20039;-74
2022/04/14 05:55:30;;;;;;;58.40;39.75;;;;;;;8.76;100.00;102061.22;5110094;28;20039;-74
2022/04/14 05:57:56;;;;;;;63.83;40.03;;;;;;;8.74;100.00;102053.44;5107992;28;20027;-75
2022/04/14 06:00:21;;;;;;;62.38;41.08;;;;;;;8.78;100.00;102062.97;5111164;28;21787;-75
2022/04/14 06:02:46;;;;;;;60.33;38.95;;;;;;;8.83;100.00;102068.22;5111587;28;20031;-75
2022/04/14 06:05:12;;;;;;;60.53;38.38;;;;;;;8.86;100.00;102066.50;5109212;28;20032;-74
2022/04/14 06:07:38;;;;;;;59.58;39.92;;;;;;;8.88;100.00;102066.47;5107208;28;20023;-75
2022/04/14 06:10:03;;;;;;;61.25;40.25;;;;;;;8.91;100.00;102069.09;5111455;28;20131;-74
2022/04/14 06:12:28;;;;;;;59.40;39.53;;;;;;;8.95;100.00;102073.44;5099347;28;20451;-75
2022/04/14 06:14:54;;;;;;;59.45;39.38;;;;;;;8.96;100.00;102064.78;5109418;28;20145;-74
2022/04/14 06:17:19;;;;;;;63.95;40.20;;;;;;;9.01;100.00;102070.84;5110002;28;20026;-75
2022/04/14 06:19:44;;;;;;;61.90;40.22;;;;;;;9.01;100.00;102052.66;5111434;28;20110;-75
2022/04/14 06:22:09;;;;;;;63.50;41.00;;;;;;;9.11;100.00;102064.81;5109878;28;20039;-75
2022/04/14 06:24:35;;;;;;;60.25;39.95;;;;;;;9.17;100.00;102065.69;5101394;27;20406;-74
2022/04/14 06:27:00;;;;;;;62.97;39.60;;;;;;;9.20;100.00;102069.16;5108475;28;20024;-74
2022/04/14 06:29:25;;;;;;;61.47;41.50;;;;;;;9.26;100.00;102065.72;5108006;28;20038;-74
2022/04/14 06:31:50;;;;;;;64.15;40.22;;;;;;;9.32;100.00;102065.72;5110973;28;20031;-74
2022/04/14 06:34:16;;;;;;;60.53;40.00;;;;;;;9.41;100.00;102078.72;5109528;28;20016;-75
2022/04/14 06:36:41;;;;;;;59.20;39.47;;;;;;;9.46;100.00;102073.53;5109700;28;20036;-75
2022/04/14 06:39:12;;;;;;;59.95;40.38;;;;;;;9.51;100.00;102067.44;5111954;28;20072;-76
2022/04/14 06:41:38;;;;;;;65.05;40.83;;;;;;;9.57;100.00;102074.41;5111845;28;20039;-75
2022/04/14 06:44:03;;;;;;;62.55;42.15;;;;;;;9.65;100.00;102077.03;5107799;28;20021;-76
2022/04/14 06:46:29;;;;;;;65.63;42.13;;;;;;;9.71;100.00;102072.69;5109592;28;20030;-76
2022/04/14 06:48:56;;;;;;;61.88;40.58;;;;;;;9.79;100.00;102070.94;5112149;28;20086;-76
2022/04/14 06:51:21;;;;;;;62.45;40.20;;;;;;;9.84;100.00;102064.00;5111468;28;20040;-76
2022/04/14 06:53:48;;;;;;;60.05;40.75;;;;;;;9.94;100.00;102080.47;5109059;28;20028;-76
2022/04/14 06:56:13;;;;;;;61.58;40.33;;;;;;;9.99;100.00;102073.50;5108508;28;20036;-76
2022/04/14 06:58:38;;;;;;;54.53;38.15;;;;;;;10.06;100.00;102075.22;5111632;28;20072;-76
2022/04/14 07:01:04;;;;;;;60.80;39.35;;;;;;;10.17;100.00;102075.25;5104562;28;21204;-76
2022/04/14 07:03:29;;;;;;;59.47;39.75;;;;;;;10.21;100.00;102076.09;5112089;28;20026;-76
2022/04/14 07:05:56;;;;;;;59.88;39.17;;;;;;;10.25;100.00;102072.59;5108299;28;20073;-76
2022/04/14 07:08:24;;;;;;;61.10;38.15;;;;;;;10.33;100.00;102078.69;5110654;28;20458;-76
2022/04/14 07:10:50;;;;;;;56.47;39.00;;;;;;;10.42;100.00;102065.63;5109260;28;20020;-75
2022/04/14 07:13:15;;;;;;;55.72;37.17;;;;;;;10.49;100.00;102076.91;5111296;28;20034;-76
2022/04/14 07:15:40;;;;;;;55.65;36.38;;;;;;;10.54;100.00;102081.22;5111186;28;20023;-76
2022/04/14 07:18:06;;;;;;;52.42;36.03;;;;;;;10.61;100.00;102076.84;5112275;28;20023;-76
2022/04/14 07:20:31;;;;;;;55.58;38.90;;;;;;;10.72;100.00;102082.03;5107453;28;20475;-76
2022/04/14 07:22:59;;;;;;;60.92;38.63;;;;;;;10.81;100.00;102081.13;5122383;28;20117;-75
2022/04/14 07:25:24;;;;;;;55.75;39.15;;;;;;;10.87;100.00;102081.97;5119772;27;20069;-76
2022/04/14 07:27:49;;;;;;;54.05;37.88;;;;;;;10.94;100.00;102093.25;5110529;28;20020;-75
2022/04/14 07:30:15;;;;;;;54.88;37.17;;;;;;;10.97;100.00;102086.25;5108745;28;20123;-76
2022/04/14 07:32:43;;;;;;;55.70;36.70;;;;;;;11.08;100.00;102086.19;5110616;28;20436;-76
2022/04/14 07:35:08;;;;;;;53.50;35.35;;;;;;;11.19;100.00;102091.38;5111444;28;20039;-76
2022/04/14 07:37:36;;;;;;;53.85;35.45;;;;;;;11.26;100.00;102090.44;5111442;28;20070;-75
2022/04/14 07:40:02;;;;;;;46.80;32.50;;;;;;;11.36;100.00;102086.91;5101311;28;20052;-74
2022/04/14 07:42:34;;;;;;;42.65;28.48;;;;;;;11.44;100.00;102090.34;5099716;28;20126;-74
2022/04/14 07:45:00;;;;;;;37.00;26.95;;;;;;;11.52;100.00;102092.88;5114434;28;20072;-75
2022/04/14 07:47:25;;;;;;;38.25;26.02;;;;;;;11.59;100.00;102097.16;5112815;28;20425;-75
2022/04/14 07:49:51;;;;;;;34.90;24.40;;;;;;;11.69;100.00;102095.34;5096589;27;20409;-74
2022/04/14 07:52:16;;;;;;;33.03;23.02;;;;;;;11.83;100.00;102085.63;5108270;28;20047;-74
2022/04/14 07:54:41;;;;;;;35.28;24.67;;;;;;;11.93;100.00;102089.97;5101235;27;20027;-75
2022/04/14 07:57:07;;;;;;;31.95;21.50;;;;;;;11.99;100.00;102088.16;5116879;27;20024;-74
2022/04/14 07:59:32;;;;;;;30.75;21.77;;;;;;;12.01;100.00;102091.63;5113981;28;20031;-75
2022/04/14 08:02:00;;;;;;;28.88;20.92;;;;;;;12.15;100.00;102097.59;5107714;28;20035;-74
2022/04/14 08:04:26;;;;;;;30.63;20.65;;;;;;;12.23;100.00;102093.16;5114235;28;20004;-75
2022/04/14 08:06:52;;;;;;;31.80;22.30;;;;;;;12.33;100.00;102093.94;5112404;28;20118;-74
2022/04/14 08:09:17;;;;;;;28.63;20.63;;;;;;;12.38;97.83;102098.19;5101783;28;20043;-74
2022/04/14 08:11:43;;;;;;;26.73;20.10;;;;;;;12.51;97.74;102090.22;5094814;28;20092;-74
2022/04/14 08:14:08;;;;;;;28.08;19.63;;;;;;;12.60;97.05;102092.75;5105426;28;20471;-73
2022/04/14 08:16:33;;;;;;;26.75;19.63;;;;;;;12.65;97.65;102090.91;5113864;28;20034;-74
2022/04/14 08:18:58;;;;;;;29.30;21.10;;;;;;;12.70;96.27;102094.34;5115045;28;20069;-74
2022/04/14 08:21:24;;;;;;;25.55;19.35;;;;;;;12.80;95.84;102090.75;5109955;28;20028;-74
2022/04/14 08:23:51;;;;;;;27.48;20.13;;;;;;;12.95;91.92;102091.41;5113656;28;20474;-74
2022/04/14 08:26:17;;;;;;;26.15;18.95;;;;;;;13.10;92.93;102083.34;5115116;28;20047;-74
2022/04/14 08:28:43;;;;;;;23.33;17.00;;;;;;;13.25;90.03;102083.19;5112615;28;20035;-75
2022/04/14 08:31:09;;;;;;;24.55;16.80;;;;;;;13.33;92.11;102083.91;5105235;28;20030;-75
2022/04/14 08:33:37;;;;;;;21.48;16.75;;;;;;;13.41;90.49;102093.44;5113767;28;20059;-75
2022/04/14 08:36:03;;;;;;;21.80;15.95;;;;;;;13.51;87.67;102089.78;5120884;27;20467;-75
2022/04/14 08:38:28;;;;;;;20.65;15.70;;;;;;;13.62;87.33;102094.84;5114193;27;20102;-75
2022/04/14 08:41:00;;;;;;;23.30;16.90;;;;;;;13.70;87.66;102093.84;5114322;28;21047;-75
2022/04/14 08:43:34;;;;;;;20.40;15.80;;;;;;;13.83;87.00;102091.84;5106536;28;20024;-75
2022/04/14 08:46:00;;;;;;;;;;;;;;;13.90;91.56;102087.38;5093879;28;20050;-75
2022/04/14 08:48:26;;;;;;;18.30;14.07;;;;;;;13.94;86.60;102084.69;5094629;28;20359;-75
2022/04/14 08:50:53;;;;;;;19.17;13.60;;;;;;;14.01;82.89;102083.66;5113835;28;20054;-75
2022/04/14 08:53:22;;;;;;;16.45;13.98;;;;;;;14.15;81.45;102088.66;5121326;27;20102;-75
2022/04/14 08:55:48;;;;;;;14.45;11.27;;;;;;;14.26;82.53;102077.97;5113170;27;20110;-75
2022/04/14 08:58:15;;;;;;;17.33;12.27;;;;;;;14.50;81.89;102089.75;5104939;27;20456;-75
2022/04/14 09:00:41;;;;;;;16.05;11.65;;;;;;;14.65;80.55;102081.59;5091727;28;20506;-75
2022/04/14 09:03:06;;;;;;;16.27;11.52;;;;;;;14.72;77.97;102087.59;5095532;28;20487;-76
2022/04/14 09:05:32;;;;;;;12.85;9.30;;;;;;;14.70;76.87;102084.97;5109996;28;20036;-75
2022/04/14 09:07:57;;;;;;;15.13;10.23;;;;;;;14.85;77.84;102085.56;5106249;28;20057;-75
2022/04/14 09:10:22;;;;;;;14.35;10.30;;;;;;;15.08;79.79;102091.19;5094375;27;20023;-75
2022/04/14 09:12:49;;;;;;;14.48;11.25;;;;;;;15.18;76.77;102089.22;5099481;27;20046;-75
2022/04/14 09:15:15;;;;;;;13.65;10.02;;;;;;;15.29;78.06;102091.56;5092854;28;20379;-78
2022/04/14 09:17:40;;;;;;;14.20;10.43;;;;;;;15.40;75.66;102090.44;5094237;28;20107;-76
2022/04/14 09:20:28;;;;;;;14.23;11.43;;;;;;;15.52;78.58;102085.78;5097911;28;20451;-75
2022/04/14 09:23:13;;;;;;;10.77;7.95;;;;;;;15.60;77.28;102075.94;5106620;28;20047;-79
2022/04/14 09:25:40;;;;;;;11.75;8.55;;;;;;;15.64;74.40;102065.31;5109907;28;20024;-75
2022/04/14 09:28:19;;;;;;;12.25;8.77;;;;;;;15.61;74.68;102068.00;5102845;27;20467;-75
2022/04/14 09:31:06;;;;;;;14.05;9.63;;;;;;;15.66;72.40;102074.06;5098054;28;20474;-75
2022/04/14 09:33:34;;;;;;;12.05;8.55;;;;;;;15.79;69.37;102076.38;5110562;27;20031;-75
2022/04/14 09:36:18;;;;;;;10.55;7.82;;;;;;;15.84;70.09;102075.34;5114076;27;20023;-75
2022/04/14 09:39:02;;;;;;;8.98;7.40;;;;;;;15.97;71.90;102059.25;5109701;28;20088;-75
2022/04/14 09:41:29;;;;;;;14.50;9.25;;;;;;;16.11;72.63;102063.22;5109160;28;20039;-75
2022/04/14 09:43:55;;;;;;;15.35;8.77;;;;;;;16.21;70.22;102065.63;5111951;28;20049;-75
2022/04/14 09:46:20;;;;;;;13.23;8.98;;;;;;;16.25;68.59;102061.97;5095219;28;20024;-75
2022/04/14 09:49:10;;;;;;;13.18;10.45;;;;;;;16.31;72.33;102049.53;5105591;28;20044;-75
2022/04/14 09:51:37;;;;;;;12.77;9.18;;;;;;;16.28;66.74;102051.38;5091941;28;20043;-75
2022/04/14 09:54:09;;;;;;;11.10;9.23;;;;;;;16.38;65.48;102052.84;5103006;28;20026;-75
2022/04/14 09:56:57;;;;;;;12.95;8.60;;;;;;;16.45;68.20;102043.00;5107334;28;20467;-75
2022/04/14 09:59:25;;;;;;;10.75;6.93;;;;;;;16.48;64.81;102037.66;5111792;28;20535;-75
2022/04/14 10:02:18;;;;;;;7.88;6.28;;;;;;;16.59;66.05;102046.97;5112335;28;20111;-75
2022/04/14 10:04:45;;;;;;;7.80;6.17;;;;;;;16.77;65.21;102045.56;5129186;27;20027;-75
2022/04/14 10:07:16;;;;;;;10.82;6.82;;;;;;;17.03;63.13;102047.41;5133339;27;20027;-75
2022/04/14 10:09:43;;;;;;;10.20;7.15;;;;;;;17.09;62.45;102039.31;5132148;27;20035;-75
2022/04/14 10:12:18;;;;;;;8.98;6.68;;;;;;;17.23;60.82;102041.53;5133301;27;20126;-75
2022/04/14 10:14:56;;;;;;;8.35;7.00;;;;;;;17.25;62.62;102037.06;5132907;27;20023;-75
2022/04/14 10:17:26;;;;;;;9.00;5.95;;;;;;;17.59;64.00;102042.97;5132683;27;20087;-75
2022/04/14 10:19:52;;;;;;;6.10;4.85;;;;;;;17.89;55.69;102055.19;5121205;27;20424;-76
2022/04/14 10:22:18;;;;;;;7.43;5.57;;;;;;;18.00;54.51;102054.78;5112658;28;20028;-76
2022/04/14 10:24:45;;;;;;;6.85;4.53;;;;;;;17.75;58.74;102065.28;5111209;28;20064;-75
2022/04/14 10:27:11;;;;;;;6.95;5.20;;;;;;;17.39;58.87;102077.91;5118226;27;20047;-75
2022/04/14 10:29:38;;;;;;;8.45;5.47;;;;;;;17.08;58.20;102085.03;5132540;27;20035;-75
2022/04/14 10:32:05;;;;;;;7.18;4.15;;;;;;;16.85;57.13;102092.78;5132324;27;20027;-75
2022/04/14 10:34:32;;;;;;;6.45;3.58;;;;;;;16.70;59.12;102088.78;5132420;27;20087;-75
2022/04/14 10:36:59;;;;;;;7.93;4.47;;;;;;;16.88;57.46;102091.81;5132971;27;20487;-75
2022/04/14 10:39:27;;;;;;;7.60;4.65;;;;;;;16.90;55.58;102088.22;5132099;27;20026;-75
2022/04/14 10:41:53;;;;;;;5.82;4.93;;;;;;;16.96;56.77;102082.75;5121651;27;20382;-75
2022/04/14 10:44:22;;;;;;;4.57;4.10;;;;;;;17.07;58.15;102096.47;5112030;28;20028;-75
2022/04/14 10:46:50;;;;;;;5.90;4.60;;;;;;;17.15;55.41;102101.50;5111701;28;20051;-75
2022/04/14 10:49:25;;;;;;;6.07;4.32;;;;;;;17.54;59.09;102094.09;5112328;28;20472;-75
2022/04/14 10:51:53;;;;;;;6.55;4.57;;;;;;;18.14;56.68;102088.59;5110805;28;20047;-75
2022/04/14 10:54:19;;;;;;;7.65;4.32;;;;;;;18.59;54.39;102082.56;5113168;28;20027;-75
2022/04/14 10:56:50;;;;;;;7.07;4.95;;;;;;;18.79;53.24;102073.94;5132468;27;20027;-75
2022/04/14 10:59:31;;;;;;;5.75;4.22;;;;;;;18.91;53.57;102081.38;5132273;27;20099;-75
2022/04/14 11:02:02;;;;;;;6.15;4.22;;;;;;;19.03;50.80;102082.69;5132803;27;20463;-75
2022/04/14 11:04:32;;;;;;;6.47;3.92;;;;;;;18.87;51.72;102080.66;5132253;27;20026;-76
2022/04/14 11:07:14;;;;;;;6.90;4.43;;;;;;;18.85;53.21;102076.34;5132397;27;20440;-75
2022/04/14 11:09:42;;;;;;;4.18;3.67;;;;;;;19.02;54.36;102076.53;5125993;27;20059;-76